sensor_id;sensor_type;location;lat;lon;timestamp;temperature;humidity
37242;DHT22;23135;51.078;12.108;2023-06-14T00:01:20;12.50;99.90
37242;DHT22;23135;51.078;12.108;2023-06-14T00:03:47;12.50;99.90
37242;DHT22;23135;51.078;12.108;2023-06-14T00:06:13;12.40;99.90
37242;DHT22;23135;51.078;12.108;2023-06-14T00:08:39;12.40;99.90
37242;DHT22;23135;51.078;12.108;2023-06-14T00:11:06;12.30;99.90
37242;DHT22;23135;51.078;12.108;2023-06-14T00:13:31;12.30;99.90
37242;DHT22;23135;51.078;12.108;2023-06-14T00:15:57;12.20;99.90
37242;DHT22;23135;51.078;12.108;2023-06-14T00:18:23;12.10;99.90
37242;DHT22;23135;51.078;12.108;2023-06-14T00:20:54;12.10;99.90
37242;DHT22;23135;51.078;12.108;2023-06-14T00:23:20;12.00;99.90
37242;DHT22;23135;51.078;12.108;2023-06-14T00:25:46;12.00;99.90
37242;DHT22;23135;51.078;12.108;2023-06-14T00:28:12;12.00;99.90
37242;DHT22;23135;51.078;12.108;2023-06-14T00:30:38;12.00;99.90
37242;DHT22;23135;51.078;12.108;2023-06-14T00:33:03;11.80;99.90
37242;DHT22;23135;51.078;12.108;2023-06-14T00:35:29;11.80;99.90
37242;DHT22;23135;51.078;12.108;2023-06-14T00:37:55;11.70;99.90
37242;DHT22;23135;51.078;12.108;2023-06-14T00:40:21;11.60;99.90
37242;DHT22;23135;51.078;12.108;2023-06-14T00:42:47;11.60;99.90
37242;DHT22;23135;51.078;12.108;2023-06-14T00:45:13;11.60;99.90
37242;DHT22;23135;51.078;12.108;2023-06-14T00:47:40;11.60;99.90
37242;DHT22;23135;51.078;12.108;2023-06-14T00:50:07;11.50;99.90
37242;DHT22;23135;51.078;12.108;2023-06-14T00:52:33;11.40;99.90
37242;DHT22;23135;51.078;12.108;2023-06-14T00:55:00;11.40;99.90
37242;DHT22;23135;51.078;12.108;2023-06-14T00:57:26;11.40;99.90
37242;DHT22;23135;51.078;12.108;2023-06-14T00:59:52;11.40;99.90
37242;DHT22;23135;51.078;12.108;2023-06-14T01:02:18;11.40;99.90
37242;DHT22;23135;51.078;12.108;2023-06-14T01:04:47;11.30;99.90
37242;DHT22;23135;51.078;12.108;2023-06-14T01:13:11;11.30;99.90
37242;DHT22;23135;51.078;12.108;2023-06-14T01:15:38;11.30;99.90
37242;DHT22;23135;51.078;12.108;2023-06-14T01:18:05;11.40;99.90
37242;DHT22;23135;51.078;12.108;2023-06-14T01:20:33;11.30;99.90
37242;DHT22;23135;51.078;12.108;2023-06-14T01:23:01;11.30;99.90
37242;DHT22;23135;51.078;12.108;2023-06-14T01:25:27;11.30;99.90
37242;DHT22;23135;51.078;12.108;2023-06-14T01:27:57;11.30;99.90
37242;DHT22;23135;51.078;12.108;2023-06-14T01:30:24;11.30;99.90
37242;DHT22;23135;51.078;12.108;2023-06-14T01:32:54;11.30;99.90
37242;DHT22;23135;51.078;12.108;2023-06-14T01:35:21;11.30;99.90
37242;DHT22;23135;51.078;12.108;2023-06-14T01:37:48;11.30;99.90
37242;DHT22;23135;51.078;12.108;2023-06-14T01:40:15;11.20;99.90
37242;DHT22;23135;51.078;12.108;2023-06-14T01:42:42;11.10;99.90
37242;DHT22;23135;51.078;12.108;2023-06-14T01:45:09;11.10;99.90
37242;DHT22;23135;51.078;12.108;2023-06-14T01:47:36;11.10;99.90
37242;DHT22;23135;51.078;12.108;2023-06-14T01:50:03;11.00;99.90
37242;DHT22;23135;51.078;12.108;2023-06-14T01:52:29;11.00;99.90
37242;DHT22;23135;51.078;12.108;2023-06-14T01:54:54;11.00;99.90
37242;DHT22;23135;51.078;12.108;2023-06-14T01:57:21;11.00;99.90
37242;DHT22;23135;51.078;12.108;2023-06-14T01:59:47;10.90;99.90
37242;DHT22;23135;51.078;12.108;2023-06-14T02:02:14;10.90;99.90
37242;DHT22;23135;51.078;12.108;2023-06-14T02:04:40;10.80;99.90
37242;DHT22;23135;51.078;12.108;2023-06-14T02:07:06;10.80;99.90
37242;DHT22;23135;51.078;12.108;2023-06-14T02:09:32;10.70;99.90
37242;DHT22;23135;51.078;12.108;2023-06-14T02:11:57;10.70;99.90
37242;DHT22;23135;51.078;12.108;2023-06-14T02:14:23;10.60;99.90
37242;DHT22;23135;51.078;12.108;2023-06-14T02:16:49;10.50;99.90
37242;DHT22;23135;51.078;12.108;2023-06-14T02:19:16;10.50;99.90
37242;DHT22;23135;51.078;12.108;2023-06-14T02:21:42;10.50;99.90
37242;DHT22;23135;51.078;12.108;2023-06-14T02:24:08;10.50;99.90
37242;DHT22;23135;51.078;12.108;2023-06-14T02:26:34;10.40;99.90
37242;DHT22;23135;51.078;12.108;2023-06-14T02:28:59;10.40;99.90
37242;DHT22;23135;51.078;12.108;2023-06-14T02:31:25;10.30;99.90
37242;DHT22;23135;51.078;12.108;2023-06-14T02:33:51;10.30;99.90
37242;DHT22;23135;51.078;12.108;2023-06-14T02:36:17;10.30;99.90
37242;DHT22;23135;51.078;12.108;2023-06-14T02:38:42;10.30;99.90
37242;DHT22;23135;51.078;12.108;2023-06-14T02:41:08;10.30;99.90
37242;DHT22;23135;51.078;12.108;2023-06-14T02:43:33;10.20;99.90
37242;DHT22;23135;51.078;12.108;2023-06-14T02:45:59;10.20;99.90
37242;DHT22;23135;51.078;12.108;2023-06-14T02:48:25;10.20;99.90
37242;DHT22;23135;51.078;12.108;2023-06-14T02:50:50;10.20;99.90
37242;DHT22;23135;51.078;12.108;2023-06-14T02:53:16;10.20;99.90
37242;DHT22;23135;51.078;12.108;2023-06-14T02:55:42;10.20;99.90
37242;DHT22;23135;51.078;12.108;2023-06-14T02:58:08;10.20;99.90
37242;DHT22;23135;51.078;12.108;2023-06-14T03:00:33;10.20;99.90
37242;DHT22;23135;51.078;12.108;2023-06-14T03:03:00;10.10;99.90
37242;DHT22;23135;51.078;12.108;2023-06-14T03:05:27;10.10;99.90
37242;DHT22;23135;51.078;12.108;2023-06-14T03:07:53;10.00;99.90
37242;DHT22;23135;51.078;12.108;2023-06-14T03:10:19;10.00;99.90
37242;DHT22;23135;51.078;12.108;2023-06-14T03:12:46;9.90;99.90
37242;DHT22;23135;51.078;12.108;2023-06-14T03:15:12;9.90;99.90
37242;DHT22;23135;51.078;12.108;2023-06-14T03:17:42;9.90;99.90
37242;DHT22;23135;51.078;12.108;2023-06-14T03:20:11;9.90;99.90
37242;DHT22;23135;51.078;12.108;2023-06-14T03:22:37;9.90;99.90
37242;DHT22;23135;51.078;12.108;2023-06-14T03:25:03;9.90;99.90
37242;DHT22;23135;51.078;12.108;2023-06-14T03:27:29;9.90;99.90
37242;DHT22;23135;51.078;12.108;2023-06-14T03:29:55;9.90;99.90
37242;DHT22;23135;51.078;12.108;2023-06-14T03:32:20;9.90;99.90
37242;DHT22;23135;51.078;12.108;2023-06-14T03:34:46;10.00;99.90
37242;DHT22;23135;51.078;12.108;2023-06-14T03:37:11;10.00;99.90
37242;DHT22;23135;51.078;12.108;2023-06-14T03:39:37;10.00;99.90
37242;DHT22;23135;51.078;12.108;2023-06-14T03:42:03;10.00;99.90
37242;DHT22;23135;51.078;12.108;2023-06-14T03:44:29;10.10;99.90
37242;DHT22;23135;51.078;12.108;2023-06-14T03:46:55;10.10;99.90
37242;DHT22;23135;51.078;12.108;2023-06-14T03:49:20;10.20;99.90
37242;DHT22;23135;51.078;12.108;2023-06-14T03:51:46;10.20;99.90
37242;DHT22;23135;51.078;12.108;2023-06-14T03:54:16;10.20;99.90
37242;DHT22;23135;51.078;12.108;2023-06-14T03:56:41;10.20;99.90
37242;DHT22;23135;51.078;12.108;2023-06-14T03:59:07;10.20;99.90
37242;DHT22;23135;51.078;12.108;2023-06-14T04:01:32;10.20;99.90
37242;DHT22;23135;51.078;12.108;2023-06-14T04:03:59;10.20;99.90
37242;DHT22;23135;51.078;12.108;2023-06-14T04:06:24;10.30;99.90
37242;DHT22;23135;51.078;12.108;2023-06-14T04:08:58;10.40;99.90
37242;DHT22;23135;51.078;12.108;2023-06-14T04:11:27;10.40;99.90
37242;DHT22;23135;51.078;12.108;2023-06-14T04:13:52;10.50;99.90
37242;DHT22;23135;51.078;12.108;2023-06-14T04:16:19;10.50;99.90
37242;DHT22;23135;51.078;12.108;2023-06-14T04:18:44;10.50;99.90
37242;DHT22;23135;51.078;12.108;2023-06-14T04:21:12;10.60;99.90
37242;DHT22;23135;51.078;12.108;2023-06-14T04:23:37;10.60;99.90
37242;DHT22;23135;51.078;12.108;2023-06-14T04:26:03;10.70;99.90
37242;DHT22;23135;51.078;12.108;2023-06-14T04:28:30;10.80;99.90
37242;DHT22;23135;51.078;12.108;2023-06-14T04:30:55;10.90;99.90
37242;DHT22;23135;51.078;12.108;2023-06-14T04:33:21;10.90;99.90
37242;DHT22;23135;51.078;12.108;2023-06-14T04:35:50;11.00;99.90
37242;DHT22;23135;51.078;12.108;2023-06-14T04:38:19;11.10;99.90
37242;DHT22;23135;51.078;12.108;2023-06-14T04:40:49;11.20;99.90
37242;DHT22;23135;51.078;12.108;2023-06-14T04:43:18;11.20;99.90
37242;DHT22;23135;51.078;12.108;2023-06-14T04:45:43;11.30;99.90
37242;DHT22;23135;51.078;12.108;2023-06-14T04:48:11;11.40;99.90
37242;DHT22;23135;51.078;12.108;2023-06-14T04:50:37;11.50;99.90
37242;DHT22;23135;51.078;12.108;2023-06-14T04:53:03;11.50;99.90
37242;DHT22;23135;51.078;12.108;2023-06-14T04:55:28;11.60;99.90
37242;DHT22;23135;51.078;12.108;2023-06-14T04:57:54;11.70;99.90
37242;DHT22;23135;51.078;12.108;2023-06-14T05:00:20;11.80;99.90
37242;DHT22;23135;51.078;12.108;2023-06-14T05:02:46;11.80;99.90
37242;DHT22;23135;51.078;12.108;2023-06-14T05:05:12;11.90;99.90
37242;DHT22;23135;51.078;12.108;2023-06-14T05:07:38;11.90;99.90
37242;DHT22;23135;51.078;12.108;2023-06-14T05:10:04;12.10;99.90
37242;DHT22;23135;51.078;12.108;2023-06-14T05:12:30;12.10;99.90
37242;DHT22;23135;51.078;12.108;2023-06-14T05:14:56;12.20;99.90
37242;DHT22;23135;51.078;12.108;2023-06-14T05:17:24;12.30;99.90
37242;DHT22;23135;51.078;12.108;2023-06-14T05:19:49;12.30;99.90
37242;DHT22;23135;51.078;12.108;2023-06-14T05:22:15;12.40;99.90
37242;DHT22;23135;51.078;12.108;2023-06-14T05:24:40;12.40;99.90
37242;DHT22;23135;51.078;12.108;2023-06-14T05:27:07;12.50;99.90
37242;DHT22;23135;51.078;12.108;2023-06-14T05:29:33;12.60;99.90
37242;DHT22;23135;51.078;12.108;2023-06-14T05:31:59;12.70;99.90
37242;DHT22;23135;51.078;12.108;2023-06-14T05:34:25;12.80;99.90
37242;DHT22;23135;51.078;12.108;2023-06-14T05:36:50;13.00;99.90
37242;DHT22;23135;51.078;12.108;2023-06-14T05:39:16;13.10;99.90
37242;DHT22;23135;51.078;12.108;2023-06-14T05:41:42;13.20;99.90
37242;DHT22;23135;51.078;12.108;2023-06-14T05:44:08;13.30;99.90
37242;DHT22;23135;51.078;12.108;2023-06-14T05:46:34;13.50;99.90
37242;DHT22;23135;51.078;12.108;2023-06-14T05:48:59;13.70;99.90
37242;DHT22;23135;51.078;12.108;2023-06-14T05:51:25;14.10;99.90
37242;DHT22;23135;51.078;12.108;2023-06-14T05:53:52;14.40;99.90
37242;DHT22;23135;51.078;12.108;2023-06-14T05:56:17;14.60;99.90
37242;DHT22;23135;51.078;12.108;2023-06-14T05:58:44;14.80;99.90
37242;DHT22;23135;51.078;12.108;2023-06-14T06:01:10;14.90;99.90
37242;DHT22;23135;51.078;12.108;2023-06-14T06:03:36;15.10;99.90
37242;DHT22;23135;51.078;12.108;2023-06-14T06:06:01;15.20;99.90
37242;DHT22;23135;51.078;12.108;2023-06-14T06:08:28;15.20;99.90
37242;DHT22;23135;51.078;12.108;2023-06-14T06:10:54;15.40;99.90
37242;DHT22;23135;51.078;12.108;2023-06-14T06:13:19;15.60;99.90
37242;DHT22;23135;51.078;12.108;2023-06-14T06:15:45;15.60;99.90
37242;DHT22;23135;51.078;12.108;2023-06-14T06:18:11;15.50;99.90
37242;DHT22;23135;51.078;12.108;2023-06-14T06:20:36;15.60;99.90
37242;DHT22;23135;51.078;12.108;2023-06-14T06:23:02;15.70;99.90
37242;DHT22;23135;51.078;12.108;2023-06-14T06:25:28;15.80;99.90
37242;DHT22;23135;51.078;12.108;2023-06-14T06:27:54;15.90;99.90
37242;DHT22;23135;51.078;12.108;2023-06-14T06:30:22;15.90;99.90
37242;DHT22;23135;51.078;12.108;2023-06-14T06:32:47;16.10;99.90
37242;DHT22;23135;51.078;12.108;2023-06-14T06:35:13;16.20;99.90
37242;DHT22;23135;51.078;12.108;2023-06-14T06:37:40;16.10;99.90
37242;DHT22;23135;51.078;12.108;2023-06-14T06:40:06;16.40;99.90
37242;DHT22;23135;51.078;12.108;2023-06-14T06:42:33;16.60;99.90
37242;DHT22;23135;51.078;12.108;2023-06-14T06:44:58;16.70;99.90
37242;DHT22;23135;51.078;12.108;2023-06-14T06:47:24;17.00;99.90
37242;DHT22;23135;51.078;12.108;2023-06-14T06:49:50;17.10;99.90
37242;DHT22;23135;51.078;12.108;2023-06-14T06:52:16;17.10;99.90
37242;DHT22;23135;51.078;12.108;2023-06-14T06:54:42;17.10;99.90
37242;DHT22;23135;51.078;12.108;2023-06-14T06:57:07;17.20;99.90
37242;DHT22;23135;51.078;12.108;2023-06-14T06:59:33;17.20;99.90
37242;DHT22;23135;51.078;12.108;2023-06-14T07:01:59;17.20;99.90
37242;DHT22;23135;51.078;12.108;2023-06-14T07:04:24;17.20;99.90
37242;DHT22;23135;51.078;12.108;2023-06-14T07:06:50;17.30;99.90
37242;DHT22;23135;51.078;12.108;2023-06-14T07:09:16;17.60;99.90
37242;DHT22;23135;51.078;12.108;2023-06-14T07:11:42;17.70;99.90
37242;DHT22;23135;51.078;12.108;2023-06-14T07:14:08;17.60;99.90
37242;DHT22;23135;51.078;12.108;2023-06-14T07:16:34;17.90;99.90
37242;DHT22;23135;51.078;12.108;2023-06-14T07:18:59;18.20;99.90
37242;DHT22;23135;51.078;12.108;2023-06-14T07:21:26;18.30;99.90
37242;DHT22;23135;51.078;12.108;2023-06-14T07:23:52;18.50;99.90
37242;DHT22;23135;51.078;12.108;2023-06-14T07:26:18;18.50;99.90
37242;DHT22;23135;51.078;12.108;2023-06-14T07:28:44;18.50;99.90
37242;DHT22;23135;51.078;12.108;2023-06-14T07:31:14;18.60;99.90
37242;DHT22;23135;51.078;12.108;2023-06-14T07:33:41;18.80;99.90
37242;DHT22;23135;51.078;12.108;2023-06-14T07:36:07;19.10;99.90
37242;DHT22;23135;51.078;12.108;2023-06-14T07:38:32;19.30;99.90
37242;DHT22;23135;51.078;12.108;2023-06-14T07:40:58;19.20;99.90
37242;DHT22;23135;51.078;12.108;2023-06-14T07:43:23;19.30;99.90
37242;DHT22;23135;51.078;12.108;2023-06-14T07:45:49;19.70;99.90
37242;DHT22;23135;51.078;12.108;2023-06-14T07:48:14;19.80;99.90
37242;DHT22;23135;51.078;12.108;2023-06-14T07:50:40;19.70;99.90
37242;DHT22;23135;51.078;12.108;2023-06-14T07:53:06;20.00;99.90
37242;DHT22;23135;51.078;12.108;2023-06-14T07:55:32;20.20;99.90
37242;DHT22;23135;51.078;12.108;2023-06-14T07:57:58;20.10;99.90
37242;DHT22;23135;51.078;12.108;2023-06-14T08:00:24;20.10;99.90
37242;DHT22;23135;51.078;12.108;2023-06-14T08:02:50;20.20;99.90
37242;DHT22;23135;51.078;12.108;2023-06-14T08:05:17;20.50;99.90
37242;DHT22;23135;51.078;12.108;2023-06-14T08:07:43;20.60;99.90
37242;DHT22;23135;51.078;12.108;2023-06-14T08:10:09;20.60;99.90
37242;DHT22;23135;51.078;12.108;2023-06-14T08:12:34;20.60;99.60
37242;DHT22;23135;51.078;12.108;2023-06-14T08:15:00;20.60;99.90
37242;DHT22;23135;51.078;12.108;2023-06-14T08:17:26;20.50;99.20
37242;DHT22;23135;51.078;12.108;2023-06-14T08:19:52;20.60;99.50
37242;DHT22;23135;51.078;12.108;2023-06-14T08:22:20;20.80;99.40
37242;DHT22;23135;51.078;12.108;2023-06-14T08:24:47;21.00;99.30
37242;DHT22;23135;51.078;12.108;2023-06-14T08:27:13;21.00;99.00
37242;DHT22;23135;51.078;12.108;2023-06-14T08:29:39;20.90;98.40
37242;DHT22;23135;51.078;12.108;2023-06-14T08:32:06;21.00;98.90
37242;DHT22;23135;51.078;12.108;2023-06-14T08:34:32;21.30;98.30
37242;DHT22;23135;51.078;12.108;2023-06-14T08:36:57;21.30;97.60
37242;DHT22;23135;51.078;12.108;2023-06-14T08:39:23;21.30;97.40
37242;DHT22;23135;51.078;12.108;2023-06-14T08:41:49;21.30;96.90
37242;DHT22;23135;51.078;12.108;2023-06-14T08:44:16;21.30;96.70
37242;DHT22;23135;51.078;12.108;2023-06-14T08:46:42;21.10;96.90
37242;DHT22;23135;51.078;12.108;2023-06-14T08:49:11;21.20;97.00
37242;DHT22;23135;51.078;12.108;2023-06-14T08:51:37;21.30;96.40
37242;DHT22;23135;51.078;12.108;2023-06-14T08:54:03;21.30;96.80
37242;DHT22;23135;51.078;12.108;2023-06-14T08:56:30;21.60;97.30
37242;DHT22;23135;51.078;12.108;2023-06-14T08:58:57;22.00;96.20
37242;DHT22;23135;51.078;12.108;2023-06-14T09:01:26;22.10;95.80
37242;DHT22;23135;51.078;12.108;2023-06-14T09:03:52;22.10;94.40
37242;DHT22;23135;51.078;12.108;2023-06-14T09:06:20;22.10;94.50
37242;DHT22;23135;51.078;12.108;2023-06-14T09:08:48;22.30;94.90
37242;DHT22;23135;51.078;12.108;2023-06-14T09:11:15;22.60;94.70
37242;DHT22;23135;51.078;12.108;2023-06-14T09:13:42;22.50;93.20
37242;DHT22;23135;51.078;12.108;2023-06-14T09:16:08;22.50;93.20
37242;DHT22;23135;51.078;12.108;2023-06-14T09:18:39;22.50;92.80
37242;DHT22;23135;51.078;12.108;2023-06-14T09:21:06;22.60;93.60
37242;DHT22;23135;51.078;12.108;2023-06-14T09:23:43;22.50;92.20
37242;DHT22;23135;51.078;12.108;2023-06-14T09:26:18;22.30;91.90
37242;DHT22;23135;51.078;12.108;2023-06-14T09:28:49;22.20;92.50
37242;DHT22;23135;51.078;12.108;2023-06-14T09:31:17;22.40;91.80
37242;DHT22;23135;51.078;12.108;2023-06-14T09:33:50;22.30;92.10
37242;DHT22;23135;51.078;12.108;2023-06-14T09:36:17;22.50;91.90
37242;DHT22;23135;51.078;12.108;2023-06-14T09:39:00;22.60;91.30
37242;DHT22;23135;51.078;12.108;2023-06-14T09:41:33;22.80;92.60
37242;DHT22;23135;51.078;12.108;2023-06-14T09:44:00;23.00;92.20
37242;DHT22;23135;51.078;12.108;2023-06-14T09:46:27;22.90;91.40
37242;DHT22;23135;51.078;12.108;2023-06-14T09:48:52;22.70;91.80
37242;DHT22;23135;51.078;12.108;2023-06-14T09:51:18;22.20;91.90
37242;DHT22;23135;51.078;12.108;2023-06-14T09:53:47;22.40;92.00
37242;DHT22;23135;51.078;12.108;2023-06-14T09:57:00;22.80;91.20
37242;DHT22;23135;51.078;12.108;2023-06-14T09:59:04;23.00;91.70
37242;DHT22;23135;51.078;12.108;2023-06-14T10:01:31;23.30;91.50
37242;DHT22;23135;51.078;12.108;2023-06-14T10:04:05;23.50;90.40
37242;DHT22;23135;51.078;12.108;2023-06-14T10:06:31;23.60;90.50
37242;DHT22;23135;51.078;12.108;2023-06-14T10:08:58;23.70;90.40
37242;DHT22;23135;51.078;12.108;2023-06-14T10:11:28;23.60;90.30
37242;DHT22;23135;51.078;12.108;2023-06-14T10:13:55;23.70;89.80
37242;DHT22;23135;51.078;12.108;2023-06-14T10:21:37;23.50;90.00
37242;DHT22;23135;51.078;12.108;2023-06-14T10:24:09;23.70;88.00
37242;DHT22;23135;51.078;12.108;2023-06-14T10:26:50;23.90;88.10
37242;DHT22;23135;51.078;12.108;2023-06-14T10:29:16;24.10;85.50
37242;DHT22;23135;51.078;12.108;2023-06-14T10:31:49;23.90;86.80
37242;DHT22;23135;51.078;12.108;2023-06-14T10:34:29;24.40;88.20
37242;DHT22;23135;51.078;12.108;2023-06-14T10:39:28;24.80;88.90
37242;DHT22;23135;51.078;12.108;2023-06-14T10:41:55;24.50;87.30
37242;DHT22;23135;51.078;12.108;2023-06-14T10:49:15;25.40;84.60
37242;DHT22;23135;51.078;12.108;2023-06-14T10:51:42;25.70;85.90
37242;DHT22;23135;51.078;12.108;2023-06-14T10:54:14;25.90;85.40
37242;DHT22;23135;51.078;12.108;2023-06-14T10:56:47;26.10;84.80
37242;DHT22;23135;51.078;12.108;2023-06-14T10:59:14;26.10;83.50
37242;DHT22;23135;51.078;12.108;2023-06-14T11:04:20;25.20;83.00
37242;DHT22;23135;51.078;12.108;2023-06-14T11:06:47;25.30;84.30
37242;DHT22;23135;51.078;12.108;2023-06-14T11:12:14;24.20;84.00
37242;DHT22;23135;51.078;12.108;2023-06-14T11:14:40;23.80;86.40
37242;DHT22;23135;51.078;12.108;2023-06-14T11:17:06;24.20;87.10
37242;DHT22;23135;51.078;12.108;2023-06-14T11:19:32;24.60;85.10
37242;DHT22;23135;51.078;12.108;2023-06-14T11:21:58;24.60;83.10
37242;DHT22;23135;51.078;12.108;2023-06-14T11:24:24;25.10;83.20
37242;DHT22;23135;51.078;12.108;2023-06-14T11:26:50;25.70;82.10
37242;DHT22;23135;51.078;12.108;2023-06-14T11:29:16;25.60;82.90
37242;DHT22;23135;51.078;12.108;2023-06-14T11:31:45;25.80;81.70
37242;DHT22;23135;51.078;12.108;2023-06-14T11:34:12;25.10;79.70
37242;DHT22;23135;51.078;12.108;2023-06-14T11:36:38;25.40;80.90
37242;DHT22;23135;51.078;12.108;2023-06-14T11:39:06;25.20;81.60
37242;DHT22;23135;51.078;12.108;2023-06-14T11:41:40;25.20;81.40
37242;DHT22;23135;51.078;12.108;2023-06-14T11:44:06;25.60;81.00
37242;DHT22;23135;51.078;12.108;2023-06-14T11:46:32;25.50;80.60
37242;DHT22;23135;51.078;12.108;2023-06-14T11:48:58;25.20;80.00
37242;DHT22;23135;51.078;12.108;2023-06-14T11:51:24;25.60;81.60
37242;DHT22;23135;51.078;12.108;2023-06-14T11:53:50;25.40;76.60
37242;DHT22;23135;51.078;12.108;2023-06-14T11:56:16;25.20;80.40
37242;DHT22;23135;51.078;12.108;2023-06-14T11:58:45;25.40;79.60
37242;DHT22;23135;51.078;12.108;2023-06-14T12:01:16;25.70;78.20
37242;DHT22;23135;51.078;12.108;2023-06-14T12:03:50;25.80;77.70
37242;DHT22;23135;51.078;12.108;2023-06-14T12:06:16;25.50;77.10
37242;DHT22;23135;51.078;12.108;2023-06-14T12:08:50;24.90;77.40
37242;DHT22;23135;51.078;12.108;2023-06-14T12:11:16;24.10;76.30
37242;DHT22;23135;51.078;12.108;2023-06-14T12:13:42;24.30;77.10
37242;DHT22;23135;51.078;12.108;2023-06-14T12:16:09;24.80;75.90
37242;DHT22;23135;51.078;12.108;2023-06-14T12:18:36;24.90;76.40
37242;DHT22;23135;51.078;12.108;2023-06-14T12:21:06;25.20;75.90
37242;DHT22;23135;51.078;12.108;2023-06-14T12:23:58;25.40;74.40
37242;DHT22;23135;51.078;12.108;2023-06-14T12:26:24;25.80;74.70
37242;DHT22;23135;51.078;12.108;2023-06-14T12:28:52;25.50;75.50
37242;DHT22;23135;51.078;12.108;2023-06-14T12:31:18;25.90;76.70
37242;DHT22;23135;51.078;12.108;2023-06-14T12:33:44;26.20;76.00
37242;DHT22;23135;51.078;12.108;2023-06-14T12:36:11;26.50;75.30
37242;DHT22;23135;51.078;12.108;2023-06-14T12:38:37;26.40;75.30
37242;DHT22;23135;51.078;12.108;2023-06-14T12:41:03;25.90;75.30
37242;DHT22;23135;51.078;12.108;2023-06-14T12:43:29;24.90;75.60
37242;DHT22;23135;51.078;12.108;2023-06-14T12:45:55;24.70;75.50
37242;DHT22;23135;51.078;12.108;2023-06-14T12:48:20;24.90;75.40
37242;DHT22;23135;51.078;12.108;2023-06-14T12:50:47;25.10;76.10
37242;DHT22;23135;51.078;12.108;2023-06-14T12:53:13;25.50;74.30
37242;DHT22;23135;51.078;12.108;2023-06-14T12:55:38;25.90;76.10
37242;DHT22;23135;51.078;12.108;2023-06-14T12:58:04;26.10;75.40
37242;DHT22;23135;51.078;12.108;2023-06-14T13:00:30;26.10;73.80
37242;DHT22;23135;51.078;12.108;2023-06-14T13:02:58;26.30;73.80
37242;DHT22;23135;51.078;12.108;2023-06-14T13:05:24;26.30;74.20
37242;DHT22;23135;51.078;12.108;2023-06-14T13:07:50;26.60;75.10
37242;DHT22;23135;51.078;12.108;2023-06-14T13:10:16;27.10;74.00
37242;DHT22;23135;51.078;12.108;2023-06-14T13:12:42;27.20;75.90
37242;DHT22;23135;51.078;12.108;2023-06-14T13:15:08;25.90;73.10
37242;DHT22;23135;51.078;12.108;2023-06-14T13:17:34;25.50;75.10
37242;DHT22;23135;51.078;12.108;2023-06-14T13:20:07;25.80;73.90
37242;DHT22;23135;51.078;12.108;2023-06-14T13:22:34;26.10;74.20
37242;DHT22;23135;51.078;12.108;2023-06-14T13:25:00;26.60;75.20
37242;DHT22;23135;51.078;12.108;2023-06-14T13:27:26;26.30;74.80
37242;DHT22;23135;51.078;12.108;2023-06-14T13:29:53;26.20;74.50
37242;DHT22;23135;51.078;12.108;2023-06-14T13:32:21;26.20;74.30
37242;DHT22;23135;51.078;12.108;2023-06-14T13:34:47;26.50;74.20
37242;DHT22;23135;51.078;12.108;2023-06-14T13:37:13;26.60;72.60
37242;DHT22;23135;51.078;12.108;2023-06-14T13:39:39;26.50;72.50
37242;DHT22;23135;51.078;12.108;2023-06-14T13:42:04;26.50;72.30
37242;DHT22;23135;51.078;12.108;2023-06-14T13:44:30;26.90;72.30
37242;DHT22;23135;51.078;12.108;2023-06-14T13:46:56;26.90;72.80
37242;DHT22;23135;51.078;12.108;2023-06-14T13:49:22;27.00;72.90
37242;DHT22;23135;51.078;12.108;2023-06-14T13:51:47;27.00;73.30
37242;DHT22;23135;51.078;12.108;2023-06-14T13:54:13;26.70;73.20
37242;DHT22;23135;51.078;12.108;2023-06-14T13:56:42;25.90;74.20
37242;DHT22;23135;51.078;12.108;2023-06-14T13:59:07;25.40;73.30
37242;DHT22;23135;51.078;12.108;2023-06-14T14:01:33;24.90;74.70
37242;DHT22;23135;51.078;12.108;2023-06-14T14:03:58;24.40;75.30
37242;DHT22;23135;51.078;12.108;2023-06-14T14:06:26;23.90;76.90
37242;DHT22;23135;51.078;12.108;2023-06-14T14:08:51;23.50;78.10
37242;DHT22;23135;51.078;12.108;2023-06-14T14:11:18;23.00;79.40
37242;DHT22;23135;51.078;12.108;2023-06-14T14:13:44;22.60;81.20
37242;DHT22;23135;51.078;12.108;2023-06-14T14:16:10;22.20;82.90
37242;DHT22;23135;51.078;12.108;2023-06-14T14:18:36;21.90;84.00
37242;DHT22;23135;51.078;12.108;2023-06-14T14:21:02;21.70;85.80
37242;DHT22;23135;51.078;12.108;2023-06-14T14:23:28;21.50;87.90
37242;DHT22;23135;51.078;12.108;2023-06-14T14:25:54;21.30;89.00
37242;DHT22;23135;51.078;12.108;2023-06-14T14:28:19;21.20;90.10
37242;DHT22;23135;51.078;12.108;2023-06-14T14:30:46;21.10;90.20
37242;DHT22;23135;51.078;12.108;2023-06-14T14:33:13;21.20;90.80
37242;DHT22;23135;51.078;12.108;2023-06-14T14:35:44;21.20;90.80
37242;DHT22;23135;51.078;12.108;2023-06-14T14:38:14;21.10;90.90
37242;DHT22;23135;51.078;12.108;2023-06-14T14:40:42;21.20;91.60
37242;DHT22;23135;51.078;12.108;2023-06-14T14:43:07;21.20;91.50
37242;DHT22;23135;51.078;12.108;2023-06-14T14:45:33;21.20;91.50
37242;DHT22;23135;51.078;12.108;2023-06-14T14:48:00;21.30;92.00
37242;DHT22;23135;51.078;12.108;2023-06-14T14:50:26;21.40;91.40
37242;DHT22;23135;51.078;12.108;2023-06-14T14:52:51;21.50;91.60
37242;DHT22;23135;51.078;12.108;2023-06-14T14:55:23;21.60;91.70
37242;DHT22;23135;51.078;12.108;2023-06-14T14:57:49;21.70;92.10
37242;DHT22;23135;51.078;12.108;2023-06-14T15:00:16;21.70;91.70
37242;DHT22;23135;51.078;12.108;2023-06-14T15:02:41;21.70;91.80
37242;DHT22;23135;51.078;12.108;2023-06-14T15:05:08;21.80;91.50
37242;DHT22;23135;51.078;12.108;2023-06-14T15:07:34;21.90;91.50
37242;DHT22;23135;51.078;12.108;2023-06-14T15:10:00;22.00;91.70
37242;DHT22;23135;51.078;12.108;2023-06-14T15:12:25;22.10;91.70
37242;DHT22;23135;51.078;12.108;2023-06-14T15:14:52;22.20;90.60
37242;DHT22;23135;51.078;12.108;2023-06-14T15:17:19;22.20;90.50
37242;DHT22;23135;51.078;12.108;2023-06-14T15:19:45;22.10;90.40
37242;DHT22;23135;51.078;12.108;2023-06-14T15:22:11;22.10;90.60
37242;DHT22;23135;51.078;12.108;2023-06-14T15:24:37;22.10;90.40
37242;DHT22;23135;51.078;12.108;2023-06-14T15:27:03;22.30;89.60
37242;DHT22;23135;51.078;12.108;2023-06-14T15:29:28;22.30;90.00
37242;DHT22;23135;51.078;12.108;2023-06-14T15:31:54;22.30;89.40
37242;DHT22;23135;51.078;12.108;2023-06-14T15:34:23;22.30;88.90
37242;DHT22;23135;51.078;12.108;2023-06-14T15:36:49;22.40;88.60
37242;DHT22;23135;51.078;12.108;2023-06-14T15:39:15;22.40;88.60